Time;durP1;ratioP1;P1;durP2;ratioP2;P2;SDS_P1;SDS_P2;PMS_P1;PMS_P2;Temp;Humidity;BMP_temperature;BMP_pressure;BME280_temperature;BME280_humidity;BME280_pressure;Samples;Min_cycle;Max_cycle;Signal;HPM_P1;HPM_P2
2023/03/25 00:01:16;;;;;;;;;;;;;;;;;;5112797;28;1073;-43
2023/03/25 00:03:49;;;;;;;;;;;;;;;;;;5112766;28;1104;-43
2023/03/25 00:06:17;;;;;;;;;;;;;;;;;;5112723;28;1077;-41
2023/03/25 00:08:44;;;;;;;;;;;;;;;;;;5128150;27;1226;-40
2023/03/25 00:11:11;;;;;;;;;;;;;;;;;;5133294;27;1681;-46
2023/03/25 00:13:39;;;;;;;;;;;;;;;;;;5133060;27;1161;-47
2023/03/25 00:16:08;;;;;;;;;;;;;;;;;;5132990;27;1725;-43
2023/03/25 00:18:36;;;;;;;;;;;;;;;;;;5132762;27;2270;-46
2023/03/25 00:21:10;;;;;;;;;;;;;;;;;;5132894;27;1369;-45
2023/03/25 00:23:38;;;;;;;;;;;;;;;;;;5132768;27;1200;-50
2023/03/25 00:26:05;;;;;;;;;;;;;;;;;;5129131;27;1226;-47
2023/03/25 00:28:34;;;;;;;;;;;;;;;;;;5112167;28;960;-53
2023/03/25 00:31:03;;;;;;;;;;;;;;;;;;5112118;28;1311;-46
2023/03/25 00:33:32;;;;;;;;;;;;;;;;;;5112132;28;1365;-50
2023/03/25 00:36:00;;;;;;;;;;;;;;;;;;5112271;28;958;-48
2023/03/25 00:38:32;;;;;;;;;;;;;;;;;;5111979;28;1913;-45
2023/03/25 00:41:10;;;;;;;;;;;;;;;;;;5112004;28;1080;-48
2023/03/25 00:43:38;;;;;;;;;;;;;;;;;;5093563;28;1027;-46
2023/03/25 00:46:05;;;;;;;;;;;;;;;;;;5092686;28;1742;-48
2023/03/25 00:48:33;;;;;;;;;;;;;;;;;;5111875;28;1093;-49
2023/03/25 00:51:06;;;;;;;;;;;;;;;;;;5111779;28;923;-44
2023/03/25 00:53:33;;;;;;;;;;;;;;;;;;5128280;27;944;-47
2023/03/25 00:56:01;;;;;;;;;;;;;;;;;;5124794;27;1353;-43
2023/03/25 00:58:29;;;;;;;;;;;;;;;;;;5110177;28;1992;-58
2023/03/25 01:00:56;;;;;;;;;;;;;;;;;;5111970;28;953;-58
2023/03/25 01:03:30;;;;;;;;;;;;;;;;;;5111548;28;1148;-54
2023/03/25 01:05:57;;;;;;;;;;;;;;;;;;5111626;28;939;-55
2023/03/25 01:08:28;;;;;;;;;;;;;;;;;;5111240;28;1072;-54
2023/03/25 01:10:57;;;;;;;;;;;;;;;;;;5093291;28;1027;-48
2023/03/25 01:13:24;;;;;;;;;;;;;;;;;;5110375;28;1384;-45
2023/03/25 01:15:52;;;;;;;;;;;;;;;;;;5111927;28;1164;-42
2023/03/25 01:18:19;;;;;;;;;;;;;;;;;;5111528;28;1913;-45
2023/03/25 01:20:46;;;;;;;;;;;;;;;;;;5111971;28;900;-42
2023/03/25 01:23:14;;;;;;;;;;;;;;;;;;5093181;28;1655;-41
2023/03/25 01:25:42;;;;;;;;;;;;;;;;;;5111612;28;1351;-43
2023/03/25 01:28:09;;;;;;;;;;;;;;;;;;5093134;28;1246;-44
2023/03/25 01:30:36;;;;;;;;;;;;;;;;;;5111491;28;1091;-49
2023/03/25 01:33:04;;;;;;;;;;;;;;;;;;5111353;28;1327;-43
2023/03/25 01:35:31;;;;;;;;;;;;;;;;;;5111467;28;1026;-57
2023/03/25 01:37:58;;;;;;;;;;;;;;;;;;5111240;28;1980;-49
2023/03/25 01:40:26;;;;;;;;;;;;;;;;;;5111230;28;895;-45
2023/03/25 01:42:53;;;;;;;;;;;;;;;;;;5111478;28;927;-57
2023/03/25 01:45:25;;;;;;;;;;;;;;;;;;5111052;28;1318;-50
2023/03/25 01:47:55;;;;;;;;;;;;;;;;;;5111327;28;1341;-51
2023/03/25 01:50:22;;;;;;;;;;;;;;;;;;5110769;28;1108;-50
2023/03/25 01:52:51;;;;;;;;;;;;;;;;;;5111411;28;1141;-54
2023/03/25 01:55:22;;;;;;;;;;;;;;;;;;5112801;28;1385;-47
2023/03/25 01:57:53;;;;;;;;;;;;;;;;;;5133402;27;1908;-48
2023/03/25 02:00:21;;;;;;;;;;;;;;;;;;5135704;27;982;-55
2023/03/25 02:02:49;;;;;;;;;;;;;;;;;;5117060;27;1228;-50
2023/03/25 02:05:17;;;;;;;;;;;;;;;;;;5117266;27;2365;-57
2023/03/25 02:07:46;;;;;;;;;;;;;;;;;;5135398;27;1019;-53
2023/03/25 02:10:16;;;;;;;;;;;;;;;;;;5116963;27;1593;-55
2023/03/25 02:12:44;;;;;;;;;;;;;;;;;;5117005;27;1406;-51
2023/03/25 02:15:13;;;;;;;;;;;;;;;;;;5134973;27;1149;-47
2023/03/25 02:17:59;;;;;;;;;;;;;;;;;;5135239;27;1907;-45
2023/03/25 02:20:45;;;;;;;;;;;;;;;;;;5134987;27;1035;-48
2023/03/25 02:23:31;;;;;;;;;;;;;;;;;;5135268;27;911;-50
2023/03/25 02:26:16;;;;;;;;;;;;;;;;;;5135235;27;970;-45
2023/03/25 02:29:00;;;;;;;;;;;;;;;;;;5116441;27;1298;-46
2023/03/25 02:31:48;;;;;;;;;;;;;;;;;;5120743;27;1201;-55
2023/03/25 02:34:21;;;;;;;;;;;;;;;;;;5114250;28;1071;-52
2023/03/25 02:36:52;;;;;;;;;;;;;;;;;;5113105;28;1161;-47
2023/03/25 02:39:39;;;;;;;;;;;;;;;;;;5096032;28;1973;-50
2023/03/25 02:42:22;;;;;;;;;;;;;;;;;;5112896;28;1904;-52
2023/03/25 02:44:58;;;;;;;;;;;;;;;;;;5113112;28;1249;-51
2023/03/25 02:47:29;;;;;;;;;;;;;;;;;;5092498;28;1314;-54
2023/03/25 02:50:23;;;;;;;;;;;;;;;;;;5093800;28;1360;-54
2023/03/25 02:52:52;;;;;;;;;;;;;;;;;;5090667;28;1457;-48
2023/03/25 02:55:21;;;;;;;;;;;;;;;;;;5092379;28;1339;-52
2023/03/25 02:57:51;;;;;;;;;;;;;;;;;;5092428;28;1976;-49
2023/03/25 03:00:22;;;;;;;;;;;;;;;;;;5092220;28;1205;-45
2023/03/25 03:02:59;;;;;;;;;;;;;;;;;;5092186;28;2339;-45
2023/03/25 03:05:30;;;;;;;;;;;;;;;;;;5092272;28;1196;-49
2023/03/25 03:08:03;;;;;;;;;;;;;;;;;;5093431;28;1080;-54
2023/03/25 03:10:42;;;;;;;;;;;;;;;;;;5092658;28;1404;-49
2023/03/25 03:13:20;;;;;;;;;;;;;;;;;;5093311;28;1148;-42
2023/03/25 03:15:50;;;;;;;;;;;;;;;;;;5093296;28;1169;-43
2023/03/25 03:18:43;;;;;;;;;;;;;;;;;;5093061;28;1907;-44
2023/03/25 03:21:10;;;;;;;;;;;;;;;;;;5092951;28;1136;-50
2023/03/25 03:23:56;;;;;;;;;;;;;;;;;;5093167;28;925;-40
2023/03/25 03:26:36;;;;;;;;;;;;;;;;;;5093461;28;1365;-40
2023/03/25 03:29:13;;;;;;;;;;;;;;;;;;5092968;28;956;-46
2023/03/25 03:31:50;;;;;;;;;;;;;;;;;;5093221;28;1380;-48
2023/03/25 03:34:50;;;;;;;;;;;;;;;;;;5092831;28;917;-46
2023/03/25 03:37:27;;;;;;;;;;;;;;;;;;5092703;28;956;-45
2023/03/25 03:39:56;;;;;;;;;;;;;;;;;;5092786;28;1906;-49
2023/03/25 03:42:49;;;;;;;;;;;;;;;;;;5092706;28;1286;-44
2023/03/25 03:45:20;;;;;;;;;;;;;;;;;;5090759;28;2186;-44
2023/03/25 03:47:51;;;;;;;;;;;;;;;;;;5113079;28;1049;-42
2023/03/25 03:50:31;;;;;;;;;;;;;;;;;;5094846;28;1009;-43
2023/03/25 03:52:59;;;;;;;;;;;;;;;;;;5112875;28;1274;-41
2023/03/25 03:55:54;;;;;;;;;;;;;;;;;;5115634;27;1338;-42
2023/03/25 03:58:26;;;;;;;;;;;;;;;;;;5130672;27;1976;-42
2023/03/25 04:01:02;;;;;;;;;;;;;;;;;;5133464;27;1687;-43
2023/03/25 04:03:33;;;;;;;;;;;;;;;;;;5116132;27;1005;-42
2023/03/25 04:06:23;;;;;;;;;;;;;;;;;;5112645;28;1111;-41
2023/03/25 04:08:59;;;;;;;;;;;;;;;;;;5094365;28;1124;-48
2023/03/25 04:11:31;;;;;;;;;;;;;;;;;;5112744;28;1170;-46
2023/03/25 04:14:00;;;;;;;;;;;;;;;;;;5112390;28;1261;-44
2023/03/25 04:16:27;;;;;;;;;;;;;;;;;;5112670;28;1182;-55
2023/03/25 04:18:54;;;;;;;;;;;;;;;;;;5111221;28;1914;-49
2023/03/25 04:21:21;;;;;;;;;;;;;;;;;;5112464;28;986;-44
2023/03/25 04:23:48;;;;;;;;;;;;;;;;;;5112259;28;1003;-48
2023/03/25 04:26:16;;;;;;;;;;;;;;;;;;5127123;27;1928;-43
2023/03/25 04:28:44;;;;;;;;;;;;;;;;;;5132612;27;936;-40
2023/03/25 04:31:15;;;;;;;;;;;;;;;;;;5132779;27;1003;-42
2023/03/25 04:33:45;;;;;;;;;;;;;;;;;;5132691;27;975;-44
2023/03/25 04:36:13;;;;;;;;;;;;;;;;;;5132893;27;939;-41
2023/03/25 04:38:40;;;;;;;;;;;;;;;;;;5132492;27;1915;-44
2023/03/25 04:41:09;;;;;;;;;;;;;;;;;;5132352;27;1184;-44
2023/03/25 04:43:38;;;;;;;;;;;;;;;;;;5132615;27;971;-43
2023/03/25 04:46:05;;;;;;;;;;;;;;;;;;5132076;27;1384;-47
2023/03/25 04:48:34;;;;;;;;;;;;;;;;;;5132429;27;1715;-45
2023/03/25 04:51:02;;;;;;;;;;;;;;;;;;5132168;27;996;-40
2023/03/25 04:53:30;;;;;;;;;;;;;;;;;;5114140;27;1375;-40
2023/03/25 04:55:57;;;;;;;;;;;;;;;;;;5132511;27;1448;-50
2023/03/25 04:58:25;;;;;;;;;;;;;;;;;;5131999;27;1901;-42
2023/03/25 05:00:52;;;;;;;;;;;;;;;;;;5132448;27;1169;-44
2023/03/25 05:03:25;;;;;;;;;;;;;;;;;;5132321;27;1019;-43
2023/03/25 05:05:53;;;;;;;;;;;;;;;;;;5131974;27;1087;-41
2023/03/25 05:08:21;;;;;;;;;;;;;;;;;;5131953;27;1038;-46
2023/03/25 05:10:49;;;;;;;;;;;;;;;;;;5132232;27;1251;-41
2023/03/25 05:13:17;;;;;;;;;;;;;;;;;;5132069;28;1219;-43
2023/03/25 05:15:44;;;;;;;;;;;;;;;;;;5126452;27;1757;-42
2023/03/25 05:18:12;;;;;;;;;;;;;;;;;;5131904;28;1917;-39
2023/03/25 05:20:41;;;;;;;;;;;;;;;;;;5130859;27;1368;-40
2023/03/25 05:23:16;;;;;;;;;;;;;;;;;;5129906;27;1589;-43
2023/03/25 05:25:45;;;;;;;;;;;;;;;;;;5130854;28;918;-39
2023/03/25 05:28:15;;;;;;;;;;;;;;;;;;5130966;28;1307;-42
2023/03/25 05:30:44;;;;;;;;;;;;;;;;;;5131647;28;1255;-40
2023/03/25 05:33:14;;;;;;;;;;;;;;;;;;5133736;27;1039;-39
2023/03/25 05:35:41;;;;;;;;;;;;;;;;;;5136228;27;1094;-37
2023/03/25 05:38:11;;;;;;;;;;;;;;;;;;5135952;27;1133;-37
2023/03/25 05:40:41;;;;;;;;;;;;;;;;;;5135858;27;1086;-38
2023/03/25 05:43:09;;;;;;;;;;;;;;;;;;5135677;27;1179;-39
2023/03/25 05:45:36;;;;;;;;;;;;;;;;;;5135522;27;1422;-43
2023/03/25 05:48:04;;;;;;;;;;;;;;;;;;5135985;27;1127;-44
2023/03/25 05:50:35;;;;;;;;;;;;;;;;;;5135577;27;1186;-39
2023/03/25 05:53:02;;;;;;;;;;;;;;;;;;5135544;27;991;-42
2023/03/25 05:55:31;;;;;;;;;;;;;;;;;;5132869;27;1353;-40
2023/03/25 05:57:58;;;;;;;;;;;;;;;;;;5108583;27;1508;-51
2023/03/25 06:00:25;;;;;;;;;;;;;;;;;;5114450;28;1965;-45
2023/03/25 06:02:53;;;;;;;;;;;;;;;;;;5114664;28;1101;-46
2023/03/25 06:05:23;;;;;;;;;;;;;;;;;;5114999;28;1059;-39
2023/03/25 06:07:50;;;;;;;;;;;;;;;;;;5114851;28;1135;-41
2023/03/25 06:10:18;;;;;;;;;;;;;;;;;;5114841;28;1042;-47
2023/03/25 06:12:45;;;;;;;;;;;;;;;;;;5114537;28;1342;-39
2023/03/25 06:15:27;;;;;;;;;;;;;;;;;;5114720;28;1054;-52
2023/03/25 06:17:56;;;;;;;;;;;;;;;;;;5114597;28;1338;-47
2023/03/25 06:20:23;;;;;;;;;;;;;;;;;;5121923;27;1912;-52
2023/03/25 06:22:50;;;;;;;;;;;;;;;;;;5123176;27;1243;-40
2023/03/25 06:25:19;;;;;;;;;;;;;;;;;;5134623;27;907;-50
2023/03/25 06:27:48;;;;;;;;;;;;;;;;;;5134780;27;914;-46
2023/03/25 06:30:17;;;;;;;;;;;;;;;;;;5134824;27;1113;-53
2023/03/25 06:32:49;;;;;;;;;;;;;;;;;;5134556;27;982;-57
2023/03/25 06:35:18;;;;;;;;;;;;;;;;;;5116267;27;940;-42
2023/03/25 06:37:47;;;;;;;;;;;;;;;;;;5134617;27;1185;-39
2023/03/25 06:40:24;;;;;;;;;;;;;;;;;;5115956;27;1977;-39
2023/03/25 06:42:51;;;;;;;;;;;;;;;;;;5116268;27;1324;-38
2023/03/25 06:45:38;;;;;;;;;;;;;;;;;;5132509;27;1131;-39
2023/03/25 06:48:15;;;;;;;;;;;;;;;;;;5115841;27;1245;-37
2023/03/25 06:50:44;;;;;;;;;;;;;;;;;;5134708;27;982;-39
2023/03/25 06:53:12;;;;;;;;;;;;;;;;;;5134328;27;1093;-39
2023/03/25 06:55:40;;;;;;;;;;;;;;;;;;5112142;28;1330;-38
2023/03/25 06:58:07;;;;;;;;;;;;;;;;;;5113986;28;927;-37
2023/03/25 07:00:34;;;;;;;;;;;;;;;;;;5113573;28;1918;-39
2023/03/25 07:03:02;;;;;;;;;;;;;;;;;;5113899;28;1036;-37
2023/03/25 07:05:29;;;;;;;;;;;;;;;;;;5113322;28;1330;-38
2023/03/25 07:07:57;;;;;;;;;;;;;;;;;;5113632;28;993;-38
2023/03/25 07:10:25;;;;;;;;;;;;;;;;;;5113363;28;1361;-38
2023/03/25 07:12:52;;;;;;;;;;;;;;;;;;5113727;28;1133;-38
2023/03/25 07:15:19;;;;;;;;;;;;;;;;;;5113255;28;1443;-40
2023/03/25 07:17:48;;;;;;;;;;;;;;;;;;5094874;28;1271;-38
2023/03/25 07:20:15;;;;;;;;;;;;;;;;;;5123936;27;1970;-39
2023/03/25 07:22:43;;;;;;;;;;;;;;;;;;5133806;27;1272;-38
2023/03/25 07:25:10;;;;;;;;;;;;;;;;;;5098503;27;1074;-43
2023/03/25 07:27:37;;;;;;;;;;;;;;;;;;5133467;27;1066;-45
2023/03/25 07:30:11;;;;;;;;;;;;;;;;;;5109090;28;1346;-37
2023/03/25 07:32:38;;;;;;;;;;;;;;;;;;5131780;27;1152;-37
2023/03/25 07:35:08;;;;;;;;;;;;;;;;;;5133017;27;1137;-37
2023/03/25 07:37:35;;;;;;;;;;;;;;;;;;5132599;27;1101;-37
2023/03/25 07:40:02;;;;;;;;;;;;;;;;;;5132754;27;1919;-38
2023/03/25 07:42:30;;;;;;;;;;;;;;;;;;5133137;27;1032;-38
2023/03/25 07:45:13;;;;;;;;;;;;;;;;;;5112228;27;1549;-37
2023/03/25 07:47:48;;;;;;;;;;;;;;;;;;5094722;28;1266;-35
2023/03/25 07:50:16;;;;;;;;;;;;;;;;;;5112903;28;917;-39
2023/03/25 07:52:44;;;;;;;;;;;;;;;;;;5112750;28;1090;-40
2023/03/25 07:55:12;;;;;;;;;;;;;;;;;;5111840;28;1132;-37
2023/03/25 07:57:41;;;;;;;;;;;;;;;;;;5112717;28;951;-38
2023/03/25 08:00:09;;;;;;;;;;;;;;;;;;5112777;28;1909;-37
2023/03/25 08:02:40;;;;;;;;;;;;;;;;;;5112715;28;1130;-39
2023/03/25 08:05:08;;;;;;;;;;;;;;;;;;5112487;28;1169;-38
2023/03/25 08:07:35;;;;;;;;;;;;;;;;;;5111202;28;1090;-38
2023/03/25 08:10:02;;;;;;;;;;;;;;;;;;5112423;28;1312;-38
2023/03/25 08:12:29;;;;;;;;;;;;;;;;;;5112550;28;1103;-38
2023/03/25 08:14:58;;;;;;;;;;;;;;;;;;5112551;28;1186;-37
2023/03/25 08:17:25;;;;;;;;;;;;;;;;;;5112395;28;1059;-39
2023/03/25 08:19:53;;;;;;;;;;;;;;;;;;5112316;28;1910;-38
2023/03/25 08:22:20;;;;;;;;;;;;;;;;;;5120474;27;985;-37
2023/03/25 08:24:47;;;;;;;;;;;;;;;;;;5132894;27;1123;-38
2023/03/25 08:27:14;;;;;;;;;;;;;;;;;;5132887;27;1073;-38
2023/03/25 08:29:43;;;;;;;;;;;;;;;;;;5133007;27;1050;-41
2023/03/25 08:32:10;;;;;;;;;;;;;;;;;;5132927;27;918;-38
2023/03/25 08:34:40;;;;;;;;;;;;;;;;;;5132500;27;1109;-42
2023/03/25 08:37:08;;;;;;;;;;;;;;;;;;5132817;27;994;-38
2023/03/25 08:39:38;;;;;;;;;;;;;;;;;;5132124;27;1966;-38
2023/03/25 08:42:07;;;;;;;;;;;;;;;;;;5132370;27;1009;-45
2023/03/25 08:44:34;;;;;;;;;;;;;;;;;;5132479;27;976;-38
2023/03/25 08:47:01;;;;;;;;;;;;;;;;;;5132287;27;1384;-38
2023/03/25 08:49:28;;;;;;;;;;;;;;;;;;5132407;27;983;-38
2023/03/25 08:51:57;;;;;;;;;;;;;;;;;;5132332;27;1191;-38
2023/03/25 08:54:26;;;;;;;;;;;;;;;;;;5132489;27;1245;-38
2023/03/25 08:56:53;;;;;;;;;;;;;;;;;;5117609;27;1337;-44
2023/03/25 08:59:20;;;;;;;;;;;;;;;;;;5111693;28;1909;-37
2023/03/25 09:01:47;;;;;;;;;;;;;;;;;;5111585;28;1199;-37
2023/03/25 09:04:15;;;;;;;;;;;;;;;;;;5111687;28;1110;-40
2023/03/25 09:06:42;;;;;;;;;;;;;;;;;;5111632;28;962;-39
2023/03/25 09:09:14;;;;;;;;;;;;;;;;;;5111803;28;1324;-38
2023/03/25 09:11:41;;;;;;;;;;;;;;;;;;5111776;28;1191;-39
2023/03/25 09:14:09;;;;;;;;;;;;;;;;;;5111459;28;1053;-47
2023/03/25 09:16:36;;;;;;;;;;;;;;;;;;5111456;28;1169;-39
2023/03/25 09:19:03;;;;;;;;;;;;;;;;;;5111515;28;955;-38
2023/03/25 09:21:30;;;;;;;;;;;;;;;;;;5111139;28;1961;-38
2023/03/25 09:23:57;;;;;;;;;;;;;;;;;;5111540;28;1184;-38
2023/03/25 09:26:25;;;;;;;;;;;;;;;;;;5111384;28;1041;-39
2023/03/25 09:28:55;;;;;;;;;;;;;;;;;;5111319;28;1171;-38
2023/03/25 09:31:22;;;;;;;;;;;;;;;;;;5111398;28;1148;-38
2023/03/25 09:33:50;;;;;;;;;;;;;;;;;;5111329;28;1118;-39
2023/03/25 09:36:17;;;;;;;;;;;;;;;;;;5111663;28;900;-40
2023/03/25 09:38:44;;;;;;;;;;;;;;;;;;5111394;28;1210;-47
2023/03/25 09:41:37;;;;;;;;;;;;;;;;;;5110721;28;1910;-42
2023/03/25 09:44:11;;;;;;;;;;;;;;;;;;5109453;28;1669;-38
2023/03/25 09:46:39;;;;;;;;;;;;;;;;;;5111135;28;1561;-39
2023/03/25 09:49:13;;;;;;;;;;;;;;;;;;5111111;28;939;-39
2023/03/25 09:51:41;;;;;;;;;;;;;;;;;;5111207;28;1122;-39
2023/03/25 09:54:24;;;;;;;;;;;;;;;;;;5110882;28;1171;-47
2023/03/25 09:56:52;;;;;;;;;;;;;;;;;;5125650;28;1337;-39
2023/03/25 09:59:22;;;;;;;;;;;;;;;;;;5131279;28;1914;-39
2023/03/25 10:02:09;;;;;;;;;;;;;;;;;;5131508;28;1097;-39
2023/03/25 10:04:45;;;;;;;;;;;;;;;;;;5118738;28;2016;-39
2023/03/25 10:07:28;;;;;;;;;;;;;;;;;;5131057;28;1252;-39
2023/03/25 10:10:13;;;;;;;;;;;;;;;;;;5130929;28;900;-56
2023/03/25 10:12:55;;;;;;;;;;;;;;;;;;5131454;28;1059;-39
2023/03/25 10:15:28;;;;;;;;;;;;;;;;;;5130667;28;1090;-39
2023/03/25 10:18:13;;;;;;;;;;;;;;;;;;5131564;27;1405;-39
2023/03/25 10:20:49;;;;;;;;;;;;;;;;;;5134933;27;1905;-45
2023/03/25 10:23:35;;;;;;;;;;;;;;;;;;5135441;27;974;-39
2023/03/25 10:26:05;;;;;;;;;;;;;;;;;;5135066;27;1258;-45
2023/03/25 10:28:38;;;;;;;;;;;;;;;;;;5114274;28;968;-46
2023/03/25 10:31:08;;;;;;;;;;;;;;;;;;5114270;28;1350;-39
2023/03/25 10:33:36;;;;;;;;;;;;;;;;;;5114425;28;1068;-39
2023/03/25 10:36:06;;;;;;;;;;;;;;;;;;5114506;28;1011;-39
2023/03/25 10:38:35;;;;;;;;;;;;;;;;;;5114371;28;976;-39
2023/03/25 10:41:10;;;;;;;;;;;;;;;;;;5113691;28;1903;-40
2023/03/25 10:43:39;;;;;;;;;;;;;;;;;;5096116;28;1129;-39
2023/03/25 10:46:06;;;;;;;;;;;;;;;;;;5113730;28;1071;-39
2023/03/25 10:48:34;;;;;;;;;;;;;;;;;;5114184;28;973;-39
2023/03/25 10:51:02;;;;;;;;;;;;;;;;;;5114215;28;1082;-49
2023/03/25 10:53:29;;;;;;;;;;;;;;;;;;5113980;28;1028;-40
2023/03/25 10:56:11;;;;;;;;;;;;;;;;;;5120583;27;1330;-39
2023/03/25 10:58:40;;;;;;;;;;;;;;;;;;5134478;27;1257;-40
2023/03/25 11:01:33;;;;;;;;;;;;;;;;;;5134393;27;2270;-40
2023/03/25 11:04:02;;;;;;;;;;;;;;;;;;5131964;27;1601;-39
2023/03/25 11:06:33;;;;;;;;;;;;;;;;;;5134054;27;1239;-44
2023/03/25 11:09:21;;;;;;;;;;;;;;;;;;5134354;27;967;-41
2023/03/25 11:11:49;;;;;;;;;;;;;;;;;;5134420;27;1083;-39
2023/03/25 11:14:21;;;;;;;;;;;;;;;;;;5134380;27;965;-39
2023/03/25 11:16:52;;;;;;;;;;;;;;;;;;5134176;27;995;-47
2023/03/25 11:19:23;;;;;;;;;;;;;;;;;;5134009;27;991;-40
2023/03/25 11:21:55;;;;;;;;;;;;;;;;;;5134304;27;2000;-40
2023/03/25 11:24:27;;;;;;;;;;;;;;;;;;5134279;27;1583;-39
2023/03/25 11:26:55;;;;;;;;;;;;;;;;;;5134008;27;1218;-40
2023/03/25 11:29:24;;;;;;;;;;;;;;;;;;5133971;27;973;-39
2023/03/25 11:31:56;;;;;;;;;;;;;;;;;;5133709;27;1175;-40
2023/03/25 11:34:25;;;;;;;;;;;;;;;;;;5134159;27;975;-40
2023/03/25 11:36:54;;;;;;;;;;;;;;;;;;5133753;27;913;-40
2023/03/25 11:39:21;;;;;;;;;;;;;;;;;;5134195;27;884;-40
2023/03/25 11:41:49;;;;;;;;;;;;;;;;;;5133594;27;1909;-39
2023/03/25 11:44:37;;;;;;;;;;;;;;;;;;5133510;27;1126;-39
2023/03/25 11:47:08;;;;;;;;;;;;;;;;;;5122997;27;1276;-40
2023/03/25 11:49:37;;;;;;;;;;;;;;;;;;5133573;27;1316;-39
2023/03/25 11:52:11;;;;;;;;;;;;;;;;;;5133570;27;1382;-41
2023/03/25 11:54:39;;;;;;;;;;;;;;;;;;5133438;27;974;-39
2023/03/25 11:57:11;;;;;;;;;;;;;;;;;;5116773;27;1313;-40
2023/03/25 11:59:43;;;;;;;;;;;;;;;;;;5112919;28;1153;-39
2023/03/25 12:02:26;;;;;;;;;;;;;;;;;;5112690;28;1905;-40
2023/03/25 12:04:55;;;;;;;;;;;;;;;;;;5112627;28;932;-40
2023/03/25 12:07:23;;;;;;;;;;;;;;;;;;5112711;28;1161;-39
2023/03/25 12:09:57;;;;;;;;;;;;;;;;;;5112719;28;1061;-42
2023/03/25 12:12:31;;;;;;;;;;;;;;;;;;5112901;28;1163;-40
2023/03/25 12:15:18;;;;;;;;;;;;;;;;;;5112734;28;1004;-40
2023/03/25 12:17:48;;;;;;;;;;;;;;;;;;5112442;28;1221;-40
2023/03/25 12:20:27;;;;;;;;;;;;;;;;;;5112133;28;1974;-43
2023/03/25 12:23:00;;;;;;;;;;;;;;;;;;5112232;28;901;-43
2023/03/25 12:25:27;;;;;;;;;;;;;;;;;;5112410;28;1152;-40
2023/03/25 12:28:15;;;;;;;;;;;;;;;;;;5130720;27;947;-42
2023/03/25 12:30:42;;;;;;;;;;;;;;;;;;5131950;27;1795;-41
2023/03/25 12:33:20;;;;;;;;;;;;;;;;;;5132804;27;1160;-40
2023/03/25 12:36:05;;;;;;;;;;;;;;;;;;5113022;27;1019;-41
2023/03/25 12:38:55;;;;;;;;;;;;;;;;;;5117644;27;1082;-47
2023/03/25 12:41:55;;;;;;;;;;;;;;;;;;5121935;27;1909;-39
2023/03/25 12:44:31;;;;;;;;;;;;;;;;;;5095092;27;1292;-43
2023/03/25 12:47:10;;;;;;;;;;;;;;;;;;5132701;27;1327;-56
2023/03/25 12:49:45;;;;;;;;;;;;;;;;;;5132409;27;1107;-57
2023/03/25 12:52:20;;;;;;;;;;;;;;;;;;5132489;27;1074;-40
2023/03/25 12:55:04;;;;;;;;;;;;;;;;;;5127684;27;1216;-42
2023/03/25 12:57:50;;;;;;;;;;;;;;;;;;5122890;27;1338;-43
2023/03/25 13:00:35;;;;;;;;;;;;;;;;;;5121830;27;1987;-42
2023/03/25 13:03:15;;;;;;;;;;;;;;;;;;5122484;27;1213;-51
2023/03/25 13:05:45;;;;;;;;;;;;;;;;;;5093508;28;1199;-40
2023/03/25 13:08:18;;;;;;;;;;;;;;;;;;5113768;27;1176;-40
2023/03/25 13:10:47;;;;;;;;;;;;;;;;;;5123387;27;1272;-40
2023/03/25 13:13:18;;;;;;;;;;;;;;;;;;5119708;27;1208;-58
2023/03/25 13:15:47;;;;;;;;;;;;;;;;;;5122012;27;1299;-57
2023/03/25 13:18:15;;;;;;;;;;;;;;;;;;5120401;27;1223;-40
2023/03/25 13:20:45;;;;;;;;;;;;;;;;;;5122629;28;1914;-41
2023/03/25 13:23:16;;;;;;;;;;;;;;;;;;5122985;28;1204;-57
2023/03/25 13:25:53;;;;;;;;;;;;;;;;;;5119625;28;1139;-39
2023/03/25 13:28:24;;;;;;;;;;;;;;;;;;5122685;28;1287;-40
2023/03/25 13:30:54;;;;;;;;;;;;;;;;;;5120614;28;1267;-50
2023/03/25 13:33:27;;;;;;;;;;;;;;;;;;5121795;28;1426;-50
2023/03/25 13:35:58;;;;;;;;;;;;;;;;;;5119618;28;1252;-55
2023/03/25 13:38:33;;;;;;;;;;;;;;;;;;5111293;28;1091;-39
2023/03/25 13:41:12;;;;;;;;;;;;;;;;;;5111369;28;1975;-39
2023/03/25 13:43:45;;;;;;;;;;;;;;;;;;5111923;28;1194;-38
2023/03/25 13:46:16;;;;;;;;;;;;;;;;;;5131281;28;1214;-58
2023/03/25 13:48:53;;;;;;;;;;;;;;;;;;5131411;28;1309;-57
2023/03/25 13:51:20;;;;;;;;;;;;;;;;;;5131591;28;1074;-41
2023/03/25 13:54:03;;;;;;;;;;;;;;;;;;5132053;27;1607;-45
2023/03/25 13:56:50;;;;;;;;;;;;;;;;;;5089393;28;1530;-44
2023/03/25 13:59:30;;;;;;;;;;;;;;;;;;5115198;28;1225;-43
2023/03/25 14:02:06;;;;;;;;;;;;;;;;;;5113929;28;1976;-41
2023/03/25 14:04:52;;;;;;;;;;;;;;;;;;5115332;28;948;-40
2023/03/25 14:07:20;;;;;;;;;;;;;;;;;;5115116;28;1095;-40
2023/03/25 14:10:11;;;;;;;;;;;;;;;;;;5114922;28;1006;-40
2023/03/25 14:12:44;;;;;;;;;;;;;;;;;;5114937;28;955;-41
2023/03/25 14:15:18;;;;;;;;;;;;;;;;;;5114835;28;1615;-40
2023/03/25 14:17:46;;;;;;;;;;;;;;;;;;5114621;28;942;-39
2023/03/25 14:20:18;;;;;;;;;;;;;;;;;;5113695;28;1174;-40
2023/03/25 14:22:45;;;;;;;;;;;;;;;;;;5114814;28;1907;-41
2023/03/25 14:25:39;;;;;;;;;;;;;;;;;;5114735;28;1141;-40
2023/03/25 14:28:07;;;;;;;;;;;;;;;;;;5112213;28;1810;-42
2023/03/25 14:30:34;;;;;;;;;;;;;;;;;;5114518;28;1241;-48
2023/03/25 14:33:02;;;;;;;;;;;;;;;;;;5114631;28;1307;-46
2023/03/25 14:35:40;;;;;;;;;;;;;;;;;;5114105;28;1326;-40
2023/03/25 14:38:07;;;;;;;;;;;;;;;;;;5114573;28;1071;-40
2023/03/25 14:40:42;;;;;;;;;;;;;;;;;;5114482;28;1910;-39
2023/03/25 14:43:31;;;;;;;;;;;;;;;;;;5114098;28;971;-40
2023/03/25 14:46:05;;;;;;;;;;;;;;;;;;5114142;28;1201;-40
2023/03/25 14:48:36;;;;;;;;;;;;;;;;;;5114451;28;916;-40
2023/03/25 14:51:09;;;;;;;;;;;;;;;;;;5127432;27;1103;-39
2023/03/25 14:53:37;;;;;;;;;;;;;;;;;;5134490;27;927;-50
2023/03/25 14:56:05;;;;;;;;;;;;;;;;;;5126977;27;1284;-39
2023/03/25 14:58:36;;;;;;;;;;;;;;;;;;5114140;28;1086;-41
2023/03/25 15:01:16;;;;;;;;;;;;;;;;;;5114043;28;1914;-40
2023/03/25 15:03:44;;;;;;;;;;;;;;;;;;5112189;28;1181;-40
2023/03/25 15:06:16;;;;;;;;;;;;;;;;;;5111999;28;1380;-40
2023/03/25 15:08:50;;;;;;;;;;;;;;;;;;5113873;28;1081;-40
2023/03/25 15:11:24;;;;;;;;;;;;;;;;;;5113742;28;1070;-40
2023/03/25 15:13:54;;;;;;;;;;;;;;;;;;5113572;28;1215;-39
2023/03/25 15:16:33;;;;;;;;;;;;;;;;;;5113598;28;1192;-42
2023/03/25 15:19:05;;;;;;;;;;;;;;;;;;5113454;28;956;-40
2023/03/25 15:21:52;;;;;;;;;;;;;;;;;;5113352;28;1986;-39
2023/03/25 15:24:40;;;;;;;;;;;;;;;;;;5106455;28;1411;-41
2023/03/25 15:27:34;;;;;;;;;;;;;;;;;;5112702;28;1177;-40
2023/03/25 15:30:10;;;;;;;;;;;;;;;;;;5097225;28;1309;-43
2023/03/25 15:32:37;;;;;;;;;;;;;;;;;;5113467;28;1074;-40
2023/03/25 15:35:13;;;;;;;;;;;;;;;;;;5113072;28;946;-39
2023/03/25 15:37:59;;;;;;;;;;;;;;;;;;5095002;28;1433;-41
2023/03/25 15:40:32;;;;;;;;;;;;;;;;;;5113132;28;1019;-40
2023/03/25 15:43:17;;;;;;;;;;;;;;;;;;5113197;28;1918;-40
2023/03/25 15:45:57;;;;;;;;;;;;;;;;;;5112742;28;1220;-37
2023/03/25 15:48:44;;;;;;;;;;;;;;;;;;5113285;28;1246;-38
2023/03/25 15:51:11;;;;;;;;;;;;;;;;;;5112656;28;1136;-46
2023/03/25 15:53:49;;;;;;;;;;;;;;;;;;5113239;28;1355;-39
2023/03/25 15:56:36;;;;;;;;;;;;;;;;;;5112559;28;1361;-40
2023/03/25 15:59:24;;;;;;;;;;;;;;;;;;5112151;28;1286;-39
2023/03/25 16:01:51;;;;;;;;;;;;;;;;;;5105519;28;1985;-40
2023/03/25 16:04:30;;;;;;;;;;;;;;;;;;5112719;28;1296;-41
2023/03/25 16:06:58;;;;;;;;;;;;;;;;;;5077448;28;1003;-40
2023/03/25 16:09:26;;;;;;;;;;;;;;;;;;5112299;28;972;-40
2023/03/25 16:12:01;;;;;;;;;;;;;;;;;;5112578;28;1067;-40
2023/03/25 16:14:30;;;;;;;;;;;;;;;;;;5112389;28;1142;-46
2023/03/25 16:16:59;;;;;;;;;;;;;;;;;;5112053;28;1209;-41
2023/03/25 16:19:32;;;;;;;;;;;;;;;;;;5112464;28;1062;-40
2023/03/25 16:22:01;;;;;;;;;;;;;;;;;;5112113;28;1909;-40
2023/03/25 16:24:32;;;;;;;;;;;;;;;;;;5112447;28;1425;-39
2023/03/25 16:27:10;;;;;;;;;;;;;;;;;;5112352;28;1330;-40
2023/03/25 16:29:40;;;;;;;;;;;;;;;;;;5112138;28;908;-41
2023/03/25 16:32:16;;;;;;;;;;;;;;;;;;5112159;28;935;-41
2023/03/25 16:34:45;;;;;;;;;;;;;;;;;;5093690;28;996;-40
2023/03/25 16:37:13;;;;;;;;;;;;;;;;;;5110762;28;1499;-40
2023/03/25 16:39:40;;;;;;;;;;;;;;;;;;5111992;28;1245;-40
2023/03/25 16:42:24;;;;;;;;;;;;;;;;;;5111517;28;1978;-40
2023/03/25 16:44:51;;;;;;;;;;;;;;;;;;5112010;28;967;-42
2023/03/25 16:47:19;;;;;;;;;;;;;;;;;;5111300;28;1227;-40
2023/03/25 16:49:47;;;;;;;;;;;;;;;;;;5111896;28;997;-43
2023/03/25 16:52:18;;;;;;;;;;;;;;;;;;5111415;28;1083;-40
2023/03/25 16:55:05;;;;;;;;;;;;;;;;;;5111002;28;935;-40
2023/03/25 16:57:36;;;;;;;;;;;;;;;;;;5111422;28;1441;-43
2023/03/25 17:00:16;;;;;;;;;;;;;;;;;;5127543;27;1178;-40
2023/03/25 17:02:44;;;;;;;;;;;;;;;;;;5111931;28;1906;-40
2023/03/25 17:05:14;;;;;;;;;;;;;;;;;;5111771;28;1433;-41
2023/03/25 17:07:42;;;;;;;;;;;;;;;;;;5111927;28;1271;-39
2023/03/25 17:10:15;;;;;;;;;;;;;;;;;;5111461;28;1079;-39
2023/03/25 17:12:43;;;;;;;;;;;;;;;;;;5111685;28;981;-39
2023/03/25 17:15:14;;;;;;;;;;;;;;;;;;5111643;28;999;-45
2023/03/25 17:17:50;;;;;;;;;;;;;;;;;;5111924;28;1180;-39
2023/03/25 17:20:20;;;;;;;;;;;;;;;;;;5111448;28;1235;-40
2023/03/25 17:23:14;;;;;;;;;;;;;;;;;;5111400;28;1915;-40
2023/03/25 17:25:57;;;;;;;;;;;;;;;;;;5110458;28;1266;-40
2023/03/25 17:28:29;;;;;;;;;;;;;;;;;;5112611;28;1043;-48
2023/03/25 17:30:57;;;;;;;;;;;;;;;;;;5115702;28;983;-45
2023/03/25 17:33:24;;;;;;;;;;;;;;;;;;5097495;28;1283;-43
2023/03/25 17:35:54;;;;;;;;;;;;;;;;;;5115669;28;1283;-49
2023/03/25 17:38:37;;;;;;;;;;;;;;;;;;5115313;28;1024;-44
2023/03/25 17:41:05;;;;;;;;;;;;;;;;;;5115550;28;1228;-47